createdAt,value
2023-02-12T00:02:03.072Z,90.65
2023-02-12T00:04:29.551Z,91.45
2023-02-12T00:06:55.968Z,91.62
2023-02-12T00:09:22.361Z,90.62
2023-02-12T00:11:48.823Z,91.21
2023-02-12T00:14:15.187Z,91.03
2023-02-12T00:16:41.667Z,90.54
2023-02-12T00:19:10.073Z,91.12
2023-02-12T00:21:36.608Z,89.88
2023-02-12T00:24:04.688Z,90.18
2023-02-12T00:26:31.239Z,91.30
2023-02-12T00:28:59.974Z,90.51
2023-02-12T00:31:30.120Z,91.41
2023-02-12T00:33:57.384Z,90.35
2023-02-12T00:36:26.874Z,90.88
2023-02-12T00:38:55.172Z,90.50
2023-02-12T00:41:23.373Z,90.92
2023-02-12T00:43:50.756Z,91.02
2023-02-12T00:46:17.464Z,91.31
2023-02-12T00:48:44.157Z,91.40
2023-02-12T00:51:10.748Z,90.69
2023-02-12T00:53:37.549Z,91.86
2023-02-12T00:56:04.325Z,90.75
2023-02-12T00:58:30.818Z,91.04
2023-02-12T01:00:57.257Z,90.83
2023-02-12T01:03:25.277Z,91.69
2023-02-12T01:05:53.077Z,91.96
2023-02-12T01:08:19.841Z,91.36
2023-02-12T01:10:57.871Z,91.31
2023-02-12T01:13:25.566Z,91.43
2023-02-12T01:16:14.074Z,92.28
2023-02-12T01:18:40.653Z,91.26
2023-02-12T01:21:16.252Z,91.21
2023-02-12T01:23:43.629Z,92.19
2023-02-12T01:26:11.670Z,91.23
2023-02-12T01:28:43.035Z,91.49
2023-02-12T01:31:14.794Z,91.56
2023-02-12T01:33:41.878Z,91.27
2023-02-12T01:36:09.453Z,92.36
2023-02-12T01:38:35.838Z,91.88
2023-02-12T01:41:11.510Z,91.62
2023-02-12T01:43:38.494Z,92.18
2023-02-12T01:46:05.750Z,91.81
2023-02-12T01:48:52.447Z,92.47
2023-02-12T01:51:20.716Z,92.63
2023-02-12T01:53:50.839Z,92.12
2023-02-12T01:56:18.119Z,92.80
2023-02-12T01:58:49.267Z,92.67
2023-02-12T02:01:22.056Z,92.64
2023-02-12T02:03:52.281Z,92.62
2023-02-12T02:07:02.985Z,92.79
2023-02-12T02:09:32.825Z,93.61
2023-02-12T02:12:18.057Z,93.72
2023-02-12T02:14:45.328Z,93.42
2023-02-12T02:17:27.111Z,93.97
2023-02-12T02:20:36.331Z,94.08
2023-02-12T02:23:33.859Z,93.81
2023-02-12T02:26:28.830Z,94.18
2023-02-12T02:29:15.620Z,94.97
2023-02-12T02:31:48.826Z,95.06
2023-02-12T02:34:54.232Z,95.08
2023-02-12T02:37:28.340Z,94.64
2023-02-12T02:40:01.718Z,95.00
2023-02-12T02:42:50.902Z,95.08
2023-02-12T02:45:30.678Z,94.87
2023-02-12T02:48:07.241Z,95.08
2023-02-12T02:50:37.544Z,94.99
2023-02-12T02:53:29.950Z,96.31
2023-02-12T02:56:00.134Z,95.95
2023-02-12T02:58:35.991Z,96.22
2023-02-12T03:01:06.001Z,96.54
2023-02-12T03:03:42.655Z,96.52
2023-02-12T03:06:35.037Z,95.93
2023-02-12T03:09:09.316Z,96.27
2023-02-12T03:11:35.881Z,96.94
2023-02-12T03:14:15.226Z,96.80
2023-02-12T03:17:07.542Z,96.38
2023-02-12T03:19:44.785Z,96.19
2023-02-12T03:22:15.730Z,96.85
2023-02-12T03:24:48.338Z,96.26
2023-02-12T03:27:24.883Z,96.70
2023-02-12T03:29:51.860Z,96.84
2023-02-12T03:32:29.346Z,96.82
2023-02-12T03:35:14.440Z,96.42
2023-02-12T03:37:55.037Z,96.03
2023-02-12T03:40:36.366Z,95.92
2023-02-12T03:43:11.931Z,96.32
2023-02-12T03:45:55.453Z,96.27
2023-02-12T03:48:28.652Z,96.21
2023-02-12T03:50:59.589Z,96.23
2023-02-12T03:53:28.265Z,96.82
2023-02-12T03:56:02.719Z,96.98
2023-02-12T03:58:32.532Z,96.47
2023-02-12T04:01:00.279Z,97.03
2023-02-12T04:03:27.422Z,96.91
2023-02-12T04:05:54.377Z,97.04
2023-02-12T04:08:21.033Z,96.99
2023-02-12T04:11:13.476Z,96.68
2023-02-12T04:13:59.346Z,96.97
2023-02-12T04:16:33.206Z,96.96
2023-02-12T04:19:00.746Z,96.94
2023-02-12T04:21:35.917Z,97.14
2023-02-12T04:24:08.475Z,96.95
2023-02-12T04:26:42.653Z,97.60
2023-02-12T04:29:32.702Z,97.41
2023-02-12T04:32:12.161Z,97.56
2023-02-12T04:34:55.282Z,97.77
2023-02-12T04:37:38.155Z,97.48
2023-02-12T04:40:09.687Z,97.90
2023-02-12T04:42:47.453Z,97.78
2023-02-12T04:45:23.828Z,98.00
2023-02-12T04:47:50.255Z,97.91
2023-02-12T04:50:16.848Z,97.54
2023-02-12T04:52:43.272Z,97.57
2023-02-12T04:55:09.817Z,97.60
2023-02-12T04:57:36.566Z,97.62
2023-02-12T05:00:05.785Z,98.46
2023-02-12T05:02:33.794Z,98.36
2023-02-12T05:05:01.328Z,97.96
2023-02-12T05:07:27.847Z,97.97
2023-02-12T05:09:54.602Z,97.61
2023-02-12T05:12:21.066Z,98.11
2023-02-12T05:14:47.452Z,97.73
2023-02-12T05:17:13.968Z,98.48
2023-02-12T05:19:40.388Z,97.83
2023-02-12T05:22:06.807Z,98.36
2023-02-12T05:24:33.227Z,98.52
2023-02-12T05:26:59.636Z,98.18
2023-02-12T05:29:26.056Z,97.98
2023-02-12T05:31:52.626Z,97.93
2023-02-12T05:34:20.191Z,98.24
2023-02-12T05:36:46.856Z,98.29
2023-02-12T05:39:13.321Z,97.97
2023-02-12T05:41:39.771Z,98.03
2023-02-12T05:44:11.881Z,99.07
2023-02-12T05:46:38.916Z,98.75
2023-02-12T05:49:05.349Z,98.42
2023-02-12T05:51:34.146Z,98.40
2023-02-12T05:54:03.678Z,98.51
2023-02-12T05:56:36.130Z,98.81
2023-02-12T05:59:08.345Z,98.22
2023-02-12T06:01:37.776Z,97.99
2023-02-12T06:04:07.086Z,98.07
2023-02-12T06:06:34.593Z,98.30
2023-02-12T06:09:01.638Z,98.59
2023-02-12T06:11:28.530Z,98.32
2023-02-12T06:13:55.009Z,98.85
2023-02-12T06:16:24.879Z,98.54
2023-02-12T06:18:52.663Z,98.68
2023-02-12T06:21:23.101Z,98.30
2023-02-12T06:23:49.962Z,97.89
2023-02-12T06:26:16.949Z,98.64
2023-02-12T06:28:44.096Z,98.34
2023-02-12T06:31:28.774Z,98.21
2023-02-12T06:33:59.113Z,98.95
2023-02-12T06:36:28.321Z,98.11
2023-02-12T06:38:56.993Z,97.73
2023-02-12T06:41:24.289Z,98.32
2023-02-12T06:43:51.519Z,98.33
2023-02-12T06:46:20.877Z,98.09
2023-02-12T06:48:54.920Z,98.08
2023-02-12T06:51:23.321Z,97.99
2023-02-12T06:53:51.256Z,97.46
2023-02-12T06:56:18.445Z,98.15
2023-02-12T06:58:47.155Z,96.90
2023-02-12T07:01:19.047Z,97.72
2023-02-12T07:03:51.108Z,97.67
2023-02-12T07:06:18.067Z,97.28
2023-02-12T07:08:44.501Z,97.61
2023-02-12T07:11:11.125Z,97.51
2023-02-12T07:13:37.583Z,97.47
2023-02-12T07:16:13.983Z,97.19
2023-02-12T07:18:41.195Z,96.76
2023-02-12T07:21:09.266Z,97.25
2023-02-12T07:23:36.304Z,97.05
2023-02-12T07:26:12.636Z,96.14
2023-02-12T07:28:40.038Z,95.96
2023-02-12T07:31:14.564Z,95.98
2023-02-12T07:33:41.981Z,96.59
2023-02-12T07:36:11.351Z,96.18
2023-02-12T07:38:39.815Z,95.73
2023-02-12T07:41:19.969Z,95.81
2023-02-12T07:43:48.346Z,95.85
2023-02-12T07:46:17.158Z,95.42
2023-02-12T07:48:44.491Z,95.08
2023-02-12T07:51:14.187Z,95.35
2023-02-12T07:53:41.465Z,95.36
2023-02-12T07:56:12.236Z,95.17
2023-02-12T07:58:39.866Z,95.02
2023-02-12T08:01:24.440Z,94.63
2023-02-12T08:03:52.081Z,94.78
2023-02-12T08:06:24.463Z,94.75
2023-02-12T08:08:58.388Z,94.04
2023-02-12T08:11:26.120Z,94.26
2023-02-12T08:13:53.216Z,94.44
2023-02-12T08:16:22.703Z,94.31
2023-02-12T08:18:49.771Z,94.06
2023-02-12T08:21:18.658Z,93.91
2023-02-12T08:23:46.114Z,94.23
2023-02-12T08:26:18.924Z,93.26
2023-02-12T08:28:54.647Z,93.07
2023-02-12T08:31:26.670Z,94.28
2023-02-12T08:33:54.848Z,94.19
2023-02-12T08:36:24.412Z,94.05
2023-02-12T08:38:51.096Z,93.89
2023-02-12T08:41:22.924Z,93.67
2023-02-12T08:43:50.517Z,92.68
2023-02-12T08:46:22.940Z,92.59
2023-02-12T08:48:52.912Z,92.52
2023-02-12T08:51:22.139Z,92.21
2023-02-12T08:53:53.406Z,92.55
2023-02-12T08:56:20.335Z,91.87
2023-02-12T08:58:50.197Z,91.57
2023-02-12T09:01:19.550Z,92.02
2023-02-12T09:03:46.457Z,91.76
2023-02-12T09:06:13.600Z,90.80
2023-02-12T09:08:40.692Z,90.24
2023-02-12T09:11:09.339Z,88.49
2023-02-12T09:13:36.279Z,88.33
2023-02-12T09:16:04.560Z,87.74
2023-02-12T09:18:31.733Z,88.30
2023-02-12T09:21:04.046Z,87.58
2023-02-12T09:23:31.380Z,86.10
2023-02-12T09:25:58.123Z,85.66
2023-02-12T09:28:25.504Z,85.59
2023-02-12T09:30:52.086Z,85.99
2023-02-12T09:33:18.568Z,85.22
2023-02-12T09:35:45.000Z,85.07
2023-02-12T09:38:11.652Z,84.96
2023-02-12T09:41:00.648Z,84.67
2023-02-12T09:43:48.890Z,83.06
2023-02-12T09:46:26.452Z,82.24
2023-02-12T09:49:23.071Z,82.52
2023-02-12T09:51:56.243Z,81.61
2023-02-12T09:54:29.066Z,82.13
2023-02-12T09:56:58.776Z,80.79
2023-02-12T09:59:42.706Z,80.67
2023-02-12T10:02:20.100Z,79.42
2023-02-12T10:05:00.286Z,79.95
2023-02-12T10:07:48.775Z,79.61
2023-02-12T10:10:33.913Z,80.73
2023-02-12T10:13:05.970Z,80.21
2023-02-12T10:15:37.526Z,80.43
2023-02-12T10:18:06.684Z,79.32
2023-02-12T10:20:55.207Z,76.40
2023-02-12T10:23:33.730Z,77.64
2023-02-12T10:26:14.904Z,78.50
2023-02-12T10:28:42.905Z,78.08
2023-02-12T10:31:38.082Z,77.22
2023-02-12T10:34:24.986Z,77.75
2023-02-12T10:36:56.077Z,77.13
2023-02-12T10:39:36.752Z,77.23
2023-02-12T10:42:12.309Z,76.41
2023-02-12T10:44:38.818Z,75.47
2023-02-12T10:47:05.480Z,75.11
2023-02-12T10:49:32.953Z,75.73
2023-02-12T10:52:09.616Z,75.17
2023-02-12T10:54:38.565Z,75.28
2023-02-12T10:57:10.030Z,75.17
2023-02-12T10:59:36.751Z,73.84
2023-02-12T11:02:03.562Z,73.85
2023-02-12T11:04:33.241Z,73.48
2023-02-12T11:07:08.195Z,74.50
2023-02-12T11:09:45.789Z,74.14
2023-02-12T11:12:50.423Z,73.79
2023-02-12T11:15:23.409Z,74.06
2023-02-12T11:17:58.507Z,73.60
2023-02-12T11:21:01.354Z,74.53
2023-02-12T11:23:33.983Z,74.22
2023-02-12T11:26:41.167Z,73.35
2023-02-12T11:29:25.840Z,73.40
2023-02-12T11:32:08.630Z,72.30
2023-02-12T11:34:38.714Z,70.66
2023-02-12T11:37:18.482Z,70.60
2023-02-12T11:39:50.326Z,71.17
2023-02-12T11:42:23.797Z,70.11
2023-02-12T11:44:55.163Z,68.47
2023-02-12T11:47:34.164Z,67.59
2023-02-12T11:50:05.813Z,68.66
2023-02-12T11:52:35.706Z,66.65
2023-02-12T11:55:19.278Z,64.18
2023-02-12T11:57:49.275Z,61.76
2023-02-12T12:00:26.852Z,61.07
2023-02-12T12:03:07.610Z,56.99
2023-02-12T12:05:38.861Z,54.84
2023-02-12T12:08:16.810Z,53.32
2023-02-12T12:11:01.941Z,48.92
2023-02-12T12:13:36.001Z,48.39
2023-02-12T12:16:38.023Z,50.28
2023-02-12T12:19:31.476Z,54.26
2023-02-12T12:22:23.536Z,55.11
2023-02-12T12:25:15.644Z,55.78
2023-02-12T12:28:06.503Z,57.09
2023-02-12T12:31:13.596Z,57.46
2023-02-12T12:33:39.869Z,55.78
2023-02-12T12:36:33.532Z,57.37
2023-02-12T12:39:24.828Z,58.50
2023-02-12T12:42:37.847Z,59.44
2023-02-12T12:45:26.445Z,60.52
2023-02-12T12:47:52.987Z,58.80
2023-02-12T12:50:43.922Z,58.48
2023-02-12T12:53:27.477Z,58.88
2023-02-12T12:56:49.547Z,59.51
2023-02-12T12:59:50.662Z,61.48
2023-02-12T13:02:38.175Z,61.35
2023-02-12T13:05:13.812Z,62.63
2023-02-12T13:08:01.983Z,63.59
2023-02-12T13:11:00.670Z,62.75
2023-02-12T13:13:39.706Z,64.36
2023-02-12T13:16:21.446Z,63.62
2023-02-12T13:18:58.514Z,64.49
2023-02-12T13:21:46.848Z,65.63
2023-02-12T13:24:32.896Z,66.67
2023-02-12T13:27:05.874Z,66.15
2023-02-12T13:29:40.258Z,66.42
2023-02-12T13:32:30.035Z,66.83
2023-02-12T13:34:58.613Z,66.22
2023-02-12T13:37:39.421Z,65.47
2023-02-12T13:40:08.905Z,66.17
2023-02-12T13:42:54.584Z,66.35
2023-02-12T13:45:35.991Z,66.90
2023-02-12T13:48:29.395Z,67.97
2023-02-12T13:51:03.030Z,68.54
2023-02-12T13:54:00.643Z,69.18
2023-02-12T13:56:45.489Z,68.38
2023-02-12T13:59:53.865Z,68.37
2023-02-12T14:03:27.882Z,67.65
2023-02-12T14:06:16.222Z,68.26
2023-02-12T14:08:50.424Z,68.70
2023-02-12T15:23:57.618Z,71.96
2023-02-12T15:27:53.313Z,71.56
2023-02-12T15:31:23.316Z,72.65
2023-02-12T15:34:23.041Z,72.94
2023-02-12T15:40:47.840Z,73.48
2023-02-12T15:51:21.310Z,74.20
2023-02-12T15:54:27.970Z,75.10
2023-02-12T15:57:05.930Z,74.97
2023-02-12T16:03:09.629Z,74.71
2023-02-12T16:05:45.301Z,74.62
2023-02-12T16:14:49.041Z,74.80
2023-02-12T16:17:30.820Z,74.82
2023-02-12T16:20:29.372Z,74.99
2023-02-12T16:23:01.062Z,75.82
2023-02-12T16:25:40.328Z,75.53
2023-02-12T16:28:48.398Z,75.84
2023-02-12T16:31:35.624Z,75.71
2023-02-12T18:20:44.453Z,80.68
2023-02-12T18:50:10.957Z,80.96
2023-02-12T20:16:20.563Z,83.51
2023-02-12T20:18:49.793Z,82.48
2023-02-12T20:21:28.820Z,83.14
2023-02-12T20:23:56.099Z,83.23
2023-02-12T20:26:30.994Z,83.71
2023-02-12T20:29:00.231Z,83.22
2023-02-12T20:31:39.014Z,83.66
2023-02-12T20:34:14.228Z,83.84
2023-02-12T20:36:44.995Z,83.64
2023-02-12T20:39:15.624Z,82.95
2023-02-12T20:41:42.836Z,83.40
2023-02-12T20:44:18.305Z,83.46
2023-02-12T20:46:47.315Z,83.97
2023-02-12T20:49:16.515Z,84.31
2023-02-12T20:51:44.129Z,84.19
2023-02-12T20:54:10.900Z,83.92
2023-02-12T20:56:38.313Z,84.90
2023-02-12T20:59:06.100Z,84.79
2023-02-12T21:01:38.441Z,84.42
2023-02-12T21:04:10.941Z,84.50
2023-02-12T21:06:40.032Z,84.00
2023-02-12T21:09:07.722Z,84.31
2023-02-12T21:11:34.172Z,84.58
2023-02-12T21:14:20.905Z,84.41
2023-02-12T21:16:47.184Z,85.21
2023-02-12T21:19:14.034Z,85.03
2023-02-12T21:21:41.575Z,85.11
2023-02-12T21:24:11.499Z,84.70
2023-02-12T21:26:38.053Z,84.36
2023-02-12T21:29:04.934Z,84.71
2023-02-12T21:31:37.375Z,84.86
2023-02-12T21:34:06.329Z,84.06
2023-02-12T21:36:38.894Z,84.45
2023-02-12T21:39:07.365Z,84.23
2023-02-12T21:41:36.219Z,84.42
2023-02-12T21:44:06.722Z,84.96
2023-02-12T21:46:34.924Z,84.92
2023-02-12T21:49:01.835Z,84.69
2023-02-12T21:51:30.507Z,84.70
2023-02-12T21:54:02.358Z,84.22
2023-02-12T21:56:29.346Z,84.36
2023-02-12T21:58:57.541Z,84.80
2023-02-12T22:01:27.802Z,85.31
2023-02-12T22:03:54.552Z,84.62
2023-02-12T22:06:23.143Z,85.18
2023-02-12T22:08:50.605Z,85.74
2023-02-12T22:11:17.940Z,84.88
2023-02-12T22:13:44.393Z,84.59
2023-02-12T22:16:23.646Z,85.82
2023-02-12T22:18:55.007Z,84.64
2023-02-12T22:21:23.557Z,84.75
2023-02-12T22:23:50.834Z,85.59
2023-02-12T22:26:22.006Z,84.36
2023-02-12T22:28:51.443Z,85.40
2023-02-12T22:31:22.763Z,84.69
2023-02-12T22:33:51.092Z,85.52
2023-02-12T22:36:18.000Z,85.16
2023-02-12T22:38:44.762Z,84.89
2023-02-12T22:41:11.465Z,84.99
2023-02-12T22:43:39.651Z,85.39
2023-02-12T22:48:58.194Z,85.03
2023-02-12T22:51:30.226Z,86.06
2023-02-12T22:53:56.788Z,85.42
2023-02-12T22:56:24.784Z,85.28
2023-02-12T22:58:59.566Z,85.71
2023-02-12T23:01:27.305Z,86.39
2023-02-12T23:03:54.134Z,86.16
2023-02-12T23:06:23.205Z,85.86
2023-02-12T23:08:51.866Z,86.06
2023-02-12T23:11:19.348Z,86.30
2023-02-12T23:13:46.242Z,86.52
2023-02-12T23:16:13.027Z,86.96
2023-02-12T23:18:39.552Z,88.00
2023-02-12T23:21:06.436Z,87.84
2023-02-12T23:23:35.713Z,87.42
2023-02-12T23:26:02.314Z,87.89
2023-02-12T23:28:35.414Z,88.35
2023-02-12T23:31:02.532Z,88.69
2023-02-12T23:33:29.243Z,89.19
2023-02-12T23:35:55.759Z,89.48
2023-02-12T23:38:22.426Z,88.93
2023-02-12T23:40:48.837Z,90.35
2023-02-12T23:43:15.679Z,89.64
2023-02-12T23:45:44.412Z,89.88
2023-02-12T23:48:11.570Z,90.26
2023-02-12T23:50:38.052Z,90.37
2023-02-12T23:53:04.469Z,90.05
2023-02-12T23:55:30.947Z,89.36
2023-02-12T23:57:57.369Z,89.54
